Time;durP1;ratioP1;P1;durP2;ratioP2;P2;SDS_P1;SDS_P2;PMS_P1;PMS_P2;Temp;Humidity;BMP_temperature;BMP_pressure;BME280_temperature;BME280_humidity;BME280_pressure;Samples;Min_cycle;Max_cycle;Signal;HPM_P1;HPM_P2
2022/12/16 00:02:15;;;;;;;39.17;17.73;;;-4.50;84.20;;;;;;4992232;28;20029;-69
2022/12/16 00:04:41;;;;;;;38.80;15.55;;;-4.60;84.90;;;;;;4995393;28;20026;-69
2022/12/16 00:07:07;;;;;;;40.75;16.65;;;-4.60;84.80;;;;;;4990831;28;20455;-69
2022/12/16 00:09:32;;;;;;;39.30;16.48;;;-4.60;84.90;;;;;;4986819;28;20033;-69
2022/12/16 00:11:58;;;;;;;33.92;16.40;;;-4.70;85.20;;;;;;4988207;28;20237;-69
2022/12/16 00:14:26;;;;;;;39.15;16.63;;;-4.70;86.10;;;;;;4994493;28;20041;-69
2022/12/16 00:16:52;;;;;;;39.15;15.27;;;-4.70;87.00;;;;;;4991371;28;20989;-69
2022/12/16 00:19:17;;;;;;;32.97;15.23;;;-4.70;88.10;;;;;;4985538;28;20030;-69
2022/12/16 00:21:43;;;;;;;37.65;16.02;;;-4.70;89.00;;;;;;4995453;28;20029;-69
2022/12/16 00:24:09;;;;;;;38.92;15.88;;;-4.70;90.10;;;;;;4995316;28;20049;-69
2022/12/16 00:26:35;;;;;;;39.95;17.33;;;-4.60;90.00;;;;;;4994896;28;20828;-69
2022/12/16 00:29:01;;;;;;;35.80;15.65;;;-4.60;89.50;;;;;;4993727;28;20395;-69
2022/12/16 00:31:26;;;;;;;32.78;15.02;;;-4.60;88.80;;;;;;4991613;28;20045;-69
2022/12/16 00:33:55;;;;;;;37.88;15.23;;;-4.70;87.90;;;;;;4991753;28;20041;-69
2022/12/16 00:36:21;;;;;;;34.85;14.63;;;-4.70;86.30;;;;;;4985296;28;20137;-69
2022/12/16 00:38:47;;;;;;;27.88;14.13;;;-4.70;83.10;;;;;;4993162;28;20036;-69
2022/12/16 00:41:13;;;;;;;37.60;15.07;;;-4.80;82.20;;;;;;4993596;28;20029;-69
2022/12/16 00:43:38;;;;;;;31.13;13.80;;;-4.90;82.50;;;;;;4995103;28;20037;-69
2022/12/16 00:46:04;;;;;;;34.50;14.43;;;-5.00;82.90;;;;;;4990567;28;20026;-69
2022/12/16 00:48:30;;;;;;;30.75;14.25;;;-5.10;83.60;;;;;;4988446;28;20398;-69
2022/12/16 00:50:56;;;;;;;35.67;15.20;;;-5.10;83.60;;;;;;4989882;28;20044;-69
2022/12/16 00:53:23;;;;;;;30.08;13.70;;;-5.20;83.70;;;;;;4990416;28;20049;-69
2022/12/16 00:55:48;;;;;;;29.27;14.15;;;-5.30;84.40;;;;;;4984303;28;20030;-69
2022/12/16 00:58:14;;;;;;;34.13;15.65;;;-5.30;85.20;;;;;;4994160;28;20048;-69
2022/12/16 01:00:40;;;;;;;31.38;13.70;;;-5.30;85.50;;;;;;4994674;28;20061;-69
2022/12/16 01:03:06;;;;;;;35.42;15.48;;;-5.30;85.70;;;;;;4993768;28;20034;-69
2022/12/16 01:05:32;;;;;;;33.33;15.80;;;-5.30;87.70;;;;;;4989752;28;20038;-69
2022/12/16 01:07:57;;;;;;;36.75;15.10;;;-5.20;89.00;;;;;;4987688;28;20510;-68
2022/12/16 01:10:24;;;;;;;35.60;16.48;;;-5.20;90.10;;;;;;4990220;28;20038;-69
2022/12/16 01:12:51;;;;;;;37.22;15.65;;;-5.20;90.40;;;;;;4987498;28;20435;-69
2022/12/16 01:15:17;;;;;;;39.50;16.60;;;-5.10;90.60;;;;;;4982642;28;20109;-69
2022/12/16 01:17:43;;;;;;;36.40;16.17;;;-5.10;90.50;;;;;;4995893;28;20065;-69
2022/12/16 01:20:09;;;;;;;34.42;15.68;;;-5.00;90.50;;;;;;4993537;28;20076;-69
2022/12/16 01:22:36;;;;;;;37.47;15.52;;;-5.00;90.30;;;;;;4996420;28;20025;-69
2022/12/16 01:25:02;;;;;;;37.45;15.90;;;-5.00;90.20;;;;;;4985916;28;20070;-69
2022/12/16 01:27:28;;;;;;;31.63;15.00;;;-5.00;90.00;;;;;;5020284;28;20057;-70
2022/12/16 01:29:54;;;;;;;38.60;14.35;;;-5.00;89.30;;;;;;4992101;28;20530;-69
2022/12/16 01:32:20;;;;;;;33.65;16.02;;;-5.00;88.50;;;;;;4988178;28;20065;-69
2022/12/16 01:34:53;;;;;;;35.65;16.58;;;-4.90;88.40;;;;;;4986936;28;20838;-69
2022/12/16 01:37:22;;;;;;;39.42;17.08;;;-4.90;88.70;;;;;;4993864;28;20034;-68
2022/12/16 01:39:48;;;;;;;40.00;15.85;;;-4.90;89.90;;;;;;4995592;28;20034;-69
2022/12/16 01:42:20;;;;;;;36.45;14.93;;;-4.90;89.50;;;;;;4990664;28;20761;-69
2022/12/16 01:44:48;;;;;;;39.38;16.10;;;-4.80;89.60;;;;;;4988633;28;20505;-69
2022/12/16 01:47:23;;;;;;;39.08;16.70;;;-4.80;89.50;;;;;;4988447;28;20031;-69
2022/12/16 01:50:10;;;;;;;34.58;14.75;;;-4.80;89.50;;;;;;4989611;28;20053;-69
2022/12/16 01:52:43;;;;;;;39.30;14.68;;;-4.70;89.40;;;;;;4985245;28;20034;-69
2022/12/16 01:55:16;;;;;;;37.20;15.25;;;-4.80;88.60;;;;;;4992861;28;20115;-69
2022/12/16 01:57:49;;;;;;;34.03;15.98;;;-4.80;88.10;;;;;;4994000;28;20037;-69
2022/12/16 02:00:15;;;;;;;33.55;13.88;;;-4.90;88.20;;;;;;4994797;28;20161;-69
2022/12/16 02:02:44;;;;;;;31.75;14.13;;;-4.90;87.80;;;;;;4991831;28;20585;-70
2022/12/16 02:05:19;;;;;;;29.90;13.52;;;-4.90;87.00;;;;;;5024088;28;20149;-69
2022/12/16 02:08:15;;;;;;;34.13;14.77;;;-4.90;85.40;;;;;;4997240;28;20117;-70
2022/12/16 02:10:41;;;;;;;40.90;15.00;;;-5.00;84.60;;;;;;4992158;28;20038;-69
2022/12/16 02:13:24;;;;;;;34.70;14.88;;;-5.00;83.80;;;;;;4992907;28;20875;-69
2022/12/16 02:16:22;;;;;;;36.60;14.32;;;-5.10;84.20;;;;;;4997926;28;20064;-70
2022/12/16 02:18:51;;;;;;;29.10;12.77;;;-5.20;84.90;;;;;;4997904;28;20033;-69
2022/12/16 02:21:59;;;;;;;32.53;13.30;;;-5.20;85.20;;;;;;4997139;28;20045;-69
2022/12/16 02:24:56;;;;;;;32.90;14.60;;;-5.20;85.40;;;;;;4956436;28;20050;-69
2022/12/16 02:27:37;;;;;;;32.55;13.68;;;-5.30;84.50;;;;;;4996862;28;20037;-69
2022/12/16 02:30:24;;;;;;;27.30;12.70;;;-5.30;83.20;;;;;;4993045;28;20053;-69
2022/12/16 02:33:09;;;;;;;33.60;14.52;;;-5.40;83.10;;;;;;4997680;28;20044;-69
2022/12/16 02:36:09;;;;;;;31.77;13.45;;;-5.50;82.90;;;;;;4994460;28;20034;-69
2022/12/16 02:39:12;;;;;;;35.60;13.52;;;-5.50;83.00;;;;;;4978763;28;20045;-70
2022/12/16 02:42:07;;;;;;;42.42;15.18;;;-5.60;83.60;;;;;;4998427;28;20077;-69
2022/12/16 02:44:56;;;;;;;40.60;14.88;;;-5.70;83.70;;;;;;4992794;28;20064;-69
2022/12/16 02:47:23;;;;;;;48.33;16.33;;;-5.80;84.60;;;;;;4998349;28;20042;-69
2022/12/16 02:49:51;;;;;;;49.08;18.23;;;-5.70;85.00;;;;;;4984342;28;20041;-69
2022/12/16 02:52:20;;;;;;;43.38;17.38;;;-5.70;84.90;;;;;;4995627;28;20034;-70
2022/12/16 02:54:48;;;;;;;40.97;16.73;;;-5.70;86.80;;;;;;4996730;28;20719;-69
2022/12/16 02:57:14;;;;;;;37.85;17.38;;;-5.70;89.40;;;;;;4995281;28;20042;-70
2022/12/16 02:59:52;;;;;;;50.13;17.65;;;-5.60;90.60;;;;;;4989216;28;20041;-69
2022/12/16 03:02:34;;;;;;;54.63;19.30;;;-5.50;90.30;;;;;;4991293;28;20835;-70
2022/12/16 03:05:15;;;;;;;53.95;17.58;;;-5.50;88.70;;;;;;4994919;28;20125;-69
2022/12/16 03:07:42;;;;;;;48.05;19.27;;;-5.50;88.00;;;;;;4990853;28;20730;-69
2022/12/16 03:10:13;;;;;;;40.05;15.63;;;-5.40;85.20;;;;;;4992592;28;20038;-70
2022/12/16 03:12:43;;;;;;;37.97;14.93;;;-5.50;84.80;;;;;;4995798;28;20195;-69
2022/12/16 03:15:15;;;;;;;38.22;14.63;;;-5.60;84.50;;;;;;4996960;28;20041;-70
2022/12/16 03:17:44;;;;;;;30.85;14.32;;;-5.60;83.80;;;;;;4992308;28;20038;-69
2022/12/16 03:20:27;;;;;;;37.40;15.00;;;-5.70;82.50;;;;;;4992474;28;20034;-69
2022/12/16 03:22:58;;;;;;;40.00;16.00;;;-5.70;82.70;;;;;;4993889;28;20322;-69
2022/12/16 03:25:25;;;;;;;41.70;16.02;;;-5.80;83.30;;;;;;4989633;28;20659;-69
2022/12/16 03:27:54;;;;;;;34.65;15.65;;;-5.80;84.00;;;;;;4988702;28;20029;-69
2022/12/16 03:30:27;;;;;;;35.58;16.13;;;-5.70;85.50;;;;;;4995927;28;20129;-69
2022/12/16 03:32:53;;;;;;;37.55;15.70;;;-5.70;86.50;;;;;;4995474;28;20625;-70
2022/12/16 03:35:34;;;;;;;37.88;15.68;;;-5.70;87.10;;;;;;5025873;28;20048;-70
2022/12/16 03:38:02;;;;;;;32.72;14.95;;;-5.60;87.80;;;;;;4989319;28;20469;-69
2022/12/16 03:40:29;;;;;;;38.15;16.65;;;-5.60;88.00;;;;;;4991888;28;20442;-70
2022/12/16 03:42:56;;;;;;;43.92;16.25;;;-5.50;88.60;;;;;;4992865;28;20034;-70
2022/12/16 03:45:26;;;;;;;44.65;16.58;;;-5.40;89.10;;;;;;4988497;28;20109;-69
2022/12/16 03:47:56;;;;;;;38.17;15.20;;;-5.40;89.60;;;;;;4994805;28;20415;-69
2022/12/16 03:50:31;;;;;;;33.85;16.35;;;-5.30;89.80;;;;;;5007117;28;20037;-69
2022/12/16 03:52:57;;;;;;;33.45;14.18;;;-5.20;89.80;;;;;;4996370;28;20033;-69
2022/12/16 03:55:23;;;;;;;35.67;15.18;;;-5.20;89.20;;;;;;4990952;28;20042;-70
2022/12/16 03:57:48;;;;;;;34.83;15.07;;;-5.30;88.20;;;;;;4993587;28;20042;-69
2022/12/16 04:00:14;;;;;;;31.25;14.15;;;-5.20;86.40;;;;;;4991667;28;20045;-69
2022/12/16 04:02:40;;;;;;;38.00;14.43;;;-5.30;84.10;;;;;;4990241;28;20037;-69
2022/12/16 04:05:07;;;;;;;34.55;14.30;;;-5.30;82.80;;;;;;4984448;28;20477;-69
2022/12/16 04:07:32;;;;;;;34.53;14.50;;;-5.40;81.10;;;;;;4996277;28;20546;-69
2022/12/16 04:09:58;;;;;;;40.15;15.55;;;-5.50;81.60;;;;;;4992299;28;20042;-69
2022/12/16 04:26:14;;;;;;;36.38;15.23;;;-5.60;86.20;;;;;;4995924;28;20492;-69
2022/12/16 04:28:40;;;;;;;31.42;12.98;;;-5.60;84.40;;;;;;4993450;28;20270;-69
2022/12/16 04:31:06;;;;;;;34.08;13.73;;;-5.70;83.70;;;;;;4995956;28;20130;-69
